Time;durP1;ratioP1;P1;durP2;ratioP2;P2;SDS_P1;SDS_P2;PMS_P1;PMS_P2;Temp;Humidity;BMP_temperature;BMP_pressure;BME280_temperature;BME280_humidity;BME280_pressure;Samples;Min_cycle;Max_cycle;Signal;HPM_P1;HPM_P2
2023/06/01 00:01:33;;;;;;;;;;;22.00;47.70;;;;;;5089876;28;19912;-54
2023/06/01 00:04:01;;;;;;;;;;;22.00;47.70;;;;;;5088271;28;19916;-55
2023/06/01 00:06:30;;;;;;;;;;;22.00;47.50;;;;;;5077684;28;19923;-56
2023/06/01 00:08:55;;;;;;;;;;;22.00;47.50;;;;;;5085988;28;19924;-55
2023/06/01 00:11:21;;;;;;;;;;;22.00;47.60;;;;;;5090488;28;19908;-55
2023/06/01 00:13:48;;;;;;;;;;;22.00;47.50;;;;;;5069496;28;19912;-55
2023/06/01 00:16:13;;;;;;;;;;;22.00;47.50;;;;;;5089100;28;19916;-55
2023/06/01 00:18:39;;;;;;;;;;;22.00;47.60;;;;;;5069980;28;20348;-55
2023/06/01 00:21:04;;;;;;;;;;;22.00;47.40;;;;;;5089526;28;19981;-55
2023/06/01 00:23:30;;;;;;;;;;;21.90;47.50;;;;;;5088740;28;20390;-55
2023/06/01 00:25:55;;;;;;;;;;;21.90;47.50;;;;;;5085314;28;20359;-55
2023/06/01 00:28:21;;;;;;;;;;;21.90;47.60;;;;;;5079867;28;19919;-55
2023/06/01 00:30:46;;;;;;;;;;;21.90;47.60;;;;;;5084697;28;20433;-55
2023/06/01 00:33:12;;;;;;;;;;;21.90;47.40;;;;;;5089546;28;20012;-55
2023/06/01 00:35:37;;;;;;;;;;;21.90;47.50;;;;;;5088891;28;19916;-54
2023/06/01 00:38:03;;;;;;;;;;;22.00;47.50;;;;;;5084318;28;19916;-55
2023/06/01 00:40:28;;;;;;;;;;;21.90;47.40;;;;;;5088232;28;19947;-55
2023/06/01 00:42:53;;;;;;;;;;;21.90;47.40;;;;;;5087858;28;19920;-56
2023/06/01 00:45:19;;;;;;;;;;;21.90;47.30;;;;;;5076046;28;20372;-55
2023/06/01 00:47:44;;;;;;;;;;;21.90;47.50;;;;;;5085878;28;20295;-55
2023/06/01 00:50:10;;;;;;;;;;;21.90;47.40;;;;;;5069647;28;20396;-55
2023/06/01 00:52:36;;;;;;;;;;;21.90;47.30;;;;;;5085299;28;19912;-55
2023/06/01 00:55:02;;;;;;;;;;;21.90;47.50;;;;;;5089931;28;19912;-55
2023/06/01 00:57:27;;;;;;;;;;;21.90;47.40;;;;;;5086278;28;20368;-55
2023/06/01 00:59:53;;;;;;;;;;;21.90;47.30;;;;;;5074206;28;20109;-55
2023/06/01 01:02:21;;;;;;;;;;;21.90;47.40;;;;;;5093195;28;19912;-55
2023/06/01 01:04:52;;;;;;;;;;;21.90;47.40;;;;;;5091489;28;19919;-55
2023/06/01 01:07:42;;;;;;;;;;;21.90;47.40;;;;;;5084751;28;19920;-55
2023/06/01 01:10:17;;;;;;;;;;;21.90;47.40;;;;;;5065711;28;19966;-55
2023/06/01 01:12:55;;;;;;;;;;;21.90;47.30;;;;;;5072940;28;19912;-55
2023/06/01 01:15:25;;;;;;;;;;;21.80;47.30;;;;;;5063265;28;19931;-55
2023/06/01 01:17:51;;;;;;;;;;;21.80;47.30;;;;;;5086094;28;19920;-55
2023/06/01 01:20:22;;;;;;;;;;;21.80;47.20;;;;;;5072692;28;19959;-56
2023/06/01 01:22:51;;;;;;;;;;;21.80;47.20;;;;;;5086392;28;20315;-55
2023/06/01 01:25:40;;;;;;;;;;;21.80;47.10;;;;;;5080138;28;19927;-55
2023/06/01 01:28:12;;;;;;;;;;;21.80;47.10;;;;;;5066953;28;19967;-55
2023/06/01 01:30:38;;;;;;;;;;;21.80;47.00;;;;;;5087439;28;19948;-55
2023/06/01 01:33:03;;;;;;;;;;;21.80;47.00;;;;;;5061450;28;20397;-55
2023/06/01 01:35:29;;;;;;;;;;;21.80;47.60;;;;;;5085383;28;19912;-54
2023/06/01 01:37:54;;;;;;;;;;;21.80;47.10;;;;;;5064344;28;19916;-55
2023/06/01 01:40:20;;;;;;;;;;;21.80;47.00;;;;;;5087086;28;20373;-55
2023/06/01 01:42:46;;;;;;;;;;;21.80;47.00;;;;;;5089139;28;20299;-55
2023/06/01 01:45:11;;;;;;;;;;;21.80;47.10;;;;;;5085526;28;19913;-55
2023/06/01 01:47:51;;;;;;;;;;;21.80;46.90;;;;;;5084925;28;19926;-56
2023/06/01 01:50:17;;;;;;;;;;;21.70;47.10;;;;;;5069760;28;19912;-55
2023/06/01 01:52:43;;;;;;;;;;;21.70;46.80;;;;;;5051841;28;19919;-54
2023/06/01 01:55:08;;;;;;;;;;;21.70;46.80;;;;;;5091389;28;19916;-55
2023/06/01 01:57:34;;;;;;;;;;;21.70;46.80;;;;;;5094762;28;19920;-55
2023/06/01 02:00:00;;;;;;;;;;;21.70;46.90;;;;;;5086632;28;20352;-55
2023/06/01 02:02:25;;;;;;;;;;;21.70;46.60;;;;;;5091922;28;20261;-54
2023/06/01 02:04:51;;;;;;;;;;;21.70;46.60;;;;;;5092212;28;20519;-55
2023/06/01 02:07:16;;;;;;;;;;;21.70;46.50;;;;;;5088473;28;19924;-55
2023/06/01 02:09:42;;;;;;;;;;;21.70;46.40;;;;;;5074115;28;19961;-55
2023/06/01 02:12:07;;;;;;;;;;;21.70;46.40;;;;;;5070972;28;20003;-55
2023/06/01 02:14:33;;;;;;;;;;;21.70;46.40;;;;;;5093121;28;19920;-55
2023/06/01 02:17:00;;;;;;;;;;;21.70;46.30;;;;;;5053862;28;19924;-55
2023/06/01 02:19:26;;;;;;;;;;;21.70;46.40;;;;;;5090925;28;19912;-55
2023/06/01 02:21:51;;;;;;;;;;;21.70;46.40;;;;;;5072154;28;20646;-55
2023/06/01 02:24:17;;;;;;;;;;;21.70;46.30;;;;;;5070121;28;20471;-55
2023/06/01 02:26:43;;;;;;;;;;;21.70;46.20;;;;;;5085320;28;19916;-55
2023/06/01 02:29:08;;;;;;;;;;;21.70;46.30;;;;;;5089849;28;19916;-55
2023/06/01 02:31:34;;;;;;;;;;;21.70;46.20;;;;;;5081121;28;19920;-55
2023/06/01 02:33:59;;;;;;;;;;;21.70;46.40;;;;;;5089537;28;19916;-55
2023/06/01 02:36:26;;;;;;;;;;;21.70;46.40;;;;;;5084039;28;19916;-55
2023/06/01 02:38:51;;;;;;;;;;;21.70;46.40;;;;;;5090779;28;19920;-55
2023/06/01 02:41:17;;;;;;;;;;;21.70;46.40;;;;;;5071708;28;20284;-56
2023/06/01 02:43:42;;;;;;;;;;;21.70;46.20;;;;;;5091061;28;19933;-55
2023/06/01 02:46:08;;;;;;;;;;;21.70;46.30;;;;;;5056088;28;19917;-55
2023/06/01 02:48:33;;;;;;;;;;;21.60;46.40;;;;;;5076438;28;19946;-55
2023/06/01 02:50:58;;;;;;;;;;;21.70;46.50;;;;;;5089019;28;19928;-59
2023/06/01 02:53:27;;;;;;;;;;;21.60;46.60;;;;;;5067830;28;20027;-56
2023/06/01 02:55:52;;;;;;;;;;;21.60;46.40;;;;;;5088327;28;20368;-55
2023/06/01 02:58:18;;;;;;;;;;;21.50;46.50;;;;;;5085577;28;19912;-55
2023/06/01 03:00:43;;;;;;;;;;;21.50;46.50;;;;;;5092280;28;20376;-54
2023/06/01 03:03:09;;;;;;;;;;;21.50;46.60;;;;;;5088097;28;20396;-55
2023/06/01 03:05:35;;;;;;;;;;;21.50;46.60;;;;;;5091096;28;19920;-55
2023/06/01 03:08:01;;;;;;;;;;;21.50;46.70;;;;;;5085839;28;19919;-55
2023/06/01 03:10:26;;;;;;;;;;;21.50;46.70;;;;;;5087396;28;19912;-55
2023/06/01 03:12:51;;;;;;;;;;;21.40;46.50;;;;;;5087914;28;19990;-55
2023/06/01 03:15:17;;;;;;;;;;;21.50;46.50;;;;;;5086591;28;19916;-55
2023/06/01 03:17:43;;;;;;;;;;;21.50;46.60;;;;;;5083590;28;19916;-55
2023/06/01 03:20:14;;;;;;;;;;;21.40;46.40;;;;;;5091893;28;20438;-55
2023/06/01 03:22:40;;;;;;;;;;;21.50;46.40;;;;;;5095912;28;20090;-54
2023/06/01 03:25:07;;;;;;;;;;;21.50;46.30;;;;;;5088446;28;20005;-55
2023/06/01 03:27:32;;;;;;;;;;;21.50;46.30;;;;;;5090952;28;19981;-55
2023/06/01 03:29:58;;;;;;;;;;;21.50;46.40;;;;;;5088880;28;19916;-55
2023/06/01 03:32:23;;;;;;;;;;;21.40;46.20;;;;;;5086427;28;19920;-55
2023/06/01 03:34:48;;;;;;;;;;;21.50;46.40;;;;;;5081406;28;19916;-55
2023/06/01 03:37:14;;;;;;;;;;;21.50;46.40;;;;;;5085465;28;19919;-55
2023/06/01 03:39:39;;;;;;;;;;;21.50;47.10;;;;;;5086307;28;19916;-55
2023/06/01 03:42:05;;;;;;;;;;;21.50;46.30;;;;;;5051781;28;19913;-54
2023/06/01 03:44:31;;;;;;;;;;;21.40;46.40;;;;;;5078606;28;20354;-55
2023/06/01 03:46:56;;;;;;;;;;;21.40;46.30;;;;;;5067063;28;19920;-55
2023/06/01 03:49:22;;;;;;;;;;;21.40;46.40;;;;;;5091190;28;19957;-55
2023/06/01 03:51:47;;;;;;;;;;;21.40;46.40;;;;;;5064258;28;20431;-55
2023/06/01 03:54:13;;;;;;;;;;;21.40;46.30;;;;;;5084533;28;20324;-55
2023/06/01 03:56:38;;;;;;;;;;;21.40;46.20;;;;;;5087529;28;19922;-55
2023/06/01 03:59:04;;;;;;;;;;;21.40;46.20;;;;;;5082708;28;19920;-55
2023/06/01 04:01:30;;;;;;;;;;;21.40;46.20;;;;;;5064565;28;19919;-55
2023/06/01 04:03:56;;;;;;;;;;;21.40;46.40;;;;;;5084228;28;19916;-56
2023/06/01 04:06:22;;;;;;;;;;;21.30;46.20;;;;;;5074417;28;19939;-55
2023/06/01 04:08:49;;;;;;;;;;;21.30;46.20;;;;;;5085310;28;19912;-55
2023/06/01 04:11:17;;;;;;;;;;;21.30;46.20;;;;;;5089358;28;19985;-55
2023/06/01 04:13:43;;;;;;;;;;;21.30;46.10;;;;;;5090193;28;20453;-54
2023/06/01 04:16:09;;;;;;;;;;;21.30;46.10;;;;;;5084599;28;20363;-54
2023/06/01 04:18:35;;;;;;;;;;;21.30;46.20;;;;;;5061109;28;20380;-54
2023/06/01 04:21:00;;;;;;;;;;;21.30;46.10;;;;;;5081224;28;19920;-55
2023/06/01 04:23:25;;;;;;;;;;;21.30;46.10;;;;;;5090242;28;19919;-54
2023/06/01 04:25:51;;;;;;;;;;;21.40;46.10;;;;;;5089105;28;19916;-54
2023/06/01 04:28:17;;;;;;;;;;;21.30;46.10;;;;;;5087868;28;20005;-54
2023/06/01 04:30:44;;;;;;;;;;;21.30;46.10;;;;;;5084314;28;19913;-54
2023/06/01 04:33:09;;;;;;;;;;;21.40;46.10;;;;;;5069634;28;20448;-55
2023/06/01 04:35:36;;;;;;;;;;;21.30;46.00;;;;;;5088607;28;20047;-54
2023/06/01 04:38:02;;;;;;;;;;;21.40;46.20;;;;;;5071494;28;19970;-54
2023/06/01 04:40:27;;;;;;;;;;;21.30;46.10;;;;;;5082916;28;20435;-54
2023/06/01 04:42:55;;;;;;;;;;;21.30;46.20;;;;;;5075156;28;20284;-55
2023/06/01 04:45:21;;;;;;;;;;;21.20;46.20;;;;;;5089630;28;19919;-54
2023/06/01 04:47:46;;;;;;;;;;;21.20;46.20;;;;;;5060524;28;19920;-54
2023/06/01 04:50:12;;;;;;;;;;;21.20;46.20;;;;;;5088544;28;20284;-54
2023/06/01 04:52:38;;;;;;;;;;;21.20;46.20;;;;;;5073322;28;19908;-54
2023/06/01 04:55:07;;;;;;;;;;;21.20;46.10;;;;;;5084060;28;19924;-54
2023/06/01 04:57:35;;;;;;;;;;;21.20;46.10;;;;;;5060374;28;20409;-54
2023/06/01 05:00:07;;;;;;;;;;;21.20;46.10;;;;;;5088801;28;19912;-54
2023/06/01 05:02:33;;;;;;;;;;;21.20;46.10;;;;;;5086240;28;19951;-54
2023/06/01 05:04:58;;;;;;;;;;;21.20;46.10;;;;;;5088178;28;19966;-54
2023/06/01 05:07:24;;;;;;;;;;;21.30;46.10;;;;;;5075920;28;20003;-54
2023/06/01 05:09:50;;;;;;;;;;;21.30;46.00;;;;;;5082706;28;20027;-54
2023/06/01 05:12:15;;;;;;;;;;;21.30;46.00;;;;;;5075858;28;20388;-54
2023/06/01 05:14:40;;;;;;;;;;;21.30;46.00;;;;;;5081050;28;19912;-54
2023/06/01 05:17:06;;;;;;;;;;;21.30;45.90;;;;;;5084583;28;19965;-54
2023/06/01 05:19:31;;;;;;;;;;;21.20;46.10;;;;;;5089888;28;20008;-54
2023/06/01 05:21:57;;;;;;;;;;;21.20;46.10;;;;;;5067764;28;19913;-54
2023/06/01 05:24:22;;;;;;;;;;;21.20;46.00;;;;;;5083684;28;19952;-55
2023/06/01 05:26:48;;;;;;;;;;;21.20;46.10;;;;;;5087130;28;19963;-54
2023/06/01 05:29:13;;;;;;;;;;;21.20;46.10;;;;;;5086895;28;19939;-54
2023/06/01 05:31:39;;;;;;;;;;;21.20;46.10;;;;;;5083617;28;20748;-54
2023/06/01 05:34:04;;;;;;;;;;;21.20;46.10;;;;;;5082779;28;19916;-54
2023/06/01 05:36:31;;;;;;;;;;;21.20;46.20;;;;;;5089171;28;19966;-55
2023/06/01 05:38:57;;;;;;;;;;;21.10;46.10;;;;;;5083525;28;19912;-54
2023/06/01 05:41:22;;;;;;;;;;;21.10;46.10;;;;;;5090004;28;20291;-54
2023/06/01 05:43:48;;;;;;;;;;;21.10;46.20;;;;;;5067487;28;20014;-55
2023/06/01 05:46:13;;;;;;;;;;;21.10;46.30;;;;;;5066705;28;19939;-54
2023/06/01 05:48:39;;;;;;;;;;;21.10;46.30;;;;;;5062164;28;20203;-55
2023/06/01 05:51:05;;;;;;;;;;;21.10;46.20;;;;;;5089278;28;20003;-55
2023/06/01 05:53:30;;;;;;;;;;;21.10;46.20;;;;;;5083694;28;19916;-54
2023/06/01 05:55:56;;;;;;;;;;;21.10;46.20;;;;;;5088990;28;19976;-54
2023/06/01 05:58:22;;;;;;;;;;;21.10;46.30;;;;;;5091175;28;21370;-55
2023/06/01 06:00:47;;;;;;;;;;;21.10;46.20;;;;;;5066684;28;19919;-54
2023/06/01 06:03:13;;;;;;;;;;;21.10;46.30;;;;;;5072993;28;19912;-55
2023/06/01 06:05:38;;;;;;;;;;;21.00;46.30;;;;;;5090052;28;19916;-54
2023/06/01 06:08:04;;;;;;;;;;;21.00;46.30;;;;;;5094078;28;19965;-54
2023/06/01 06:10:29;;;;;;;;;;;21.00;46.20;;;;;;5087805;28;19912;-54
2023/06/01 06:12:55;;;;;;;;;;;21.00;46.10;;;;;;5091856;28;19918;-54
2023/06/01 06:15:20;;;;;;;;;;;21.10;46.10;;;;;;5070784;28;20293;-55
2023/06/01 06:17:46;;;;;;;;;;;21.10;46.00;;;;;;5093601;28;20430;-54
2023/06/01 06:20:12;;;;;;;;;;;21.10;45.90;;;;;;5069599;28;19912;-54
2023/06/01 06:22:37;;;;;;;;;;;21.10;45.90;;;;;;5074001;28;19912;-54
2023/06/01 06:25:03;;;;;;;;;;;21.10;45.80;;;;;;5083516;28;19958;-54
2023/06/01 06:27:29;;;;;;;;;;;21.10;45.80;;;;;;5064323;28;19936;-54
2023/06/01 06:29:54;;;;;;;;;;;21.10;45.80;;;;;;5085285;28;19916;-54
2023/06/01 06:32:20;;;;;;;;;;;21.10;45.80;;;;;;5085853;28;20295;-55
2023/06/01 06:34:46;;;;;;;;;;;21.10;45.80;;;;;;5062605;28;20345;-55
2023/06/01 06:37:11;;;;;;;;;;;21.20;46.00;;;;;;5083460;28;20307;-54
2023/06/01 06:39:37;;;;;;;;;;;21.20;46.00;;;;;;5087236;28;20003;-55
2023/06/01 06:42:03;;;;;;;;;;;21.10;46.00;;;;;;5072123;28;19911;-54
2023/06/01 06:44:28;;;;;;;;;;;21.10;46.00;;;;;;5093541;28;19912;-55
2023/06/01 06:46:54;;;;;;;;;;;21.10;46.00;;;;;;5092133;28;19946;-55
2023/06/01 06:49:19;;;;;;;;;;;21.20;46.10;;;;;;5083992;28;20295;-54
2023/06/01 06:51:45;;;;;;;;;;;21.10;46.00;;;;;;5081883;28;19951;-53
2023/06/01 06:54:11;;;;;;;;;;;21.10;46.20;;;;;;5068680;28;20384;-54
2023/06/01 06:56:36;;;;;;;;;;;21.10;46.60;;;;;;5063042;28;20046;-54
2023/06/01 06:59:02;;;;;;;;;;;21.10;46.30;;;;;;5083198;28;20011;-54
2023/06/01 07:01:28;;;;;;;;;;;21.10;46.40;;;;;;5088467;28;19912;-53
2023/06/01 07:03:53;;;;;;;;;;;21.10;46.60;;;;;;5065717;28;19923;-54
2023/06/01 07:06:19;;;;;;;;;;;21.20;46.60;;;;;;5078906;28;20015;-54
2023/06/01 07:08:44;;;;;;;;;;;21.10;46.70;;;;;;5063895;28;19920;-53
2023/06/01 07:11:10;;;;;;;;;;;21.10;46.60;;;;;;5084671;28;20049;-53
2023/06/01 07:13:36;;;;;;;;;;;21.00;46.70;;;;;;5092084;28;19909;-52
2023/06/01 07:16:05;;;;;;;;;;;20.90;46.80;;;;;;5092048;28;19919;-52
2023/06/01 07:18:30;;;;;;;;;;;20.90;47.00;;;;;;5091666;28;20344;-52
2023/06/01 07:20:56;;;;;;;;;;;20.90;47.10;;;;;;5081115;28;19912;-52
2023/06/01 07:23:22;;;;;;;;;;;20.90;47.30;;;;;;5076375;28;19908;-52
2023/06/01 07:25:47;;;;;;;;;;;20.90;47.20;;;;;;5070868;28;20376;-53
2023/06/01 07:28:13;;;;;;;;;;;20.90;47.00;;;;;;5062545;28;20285;-53
2023/06/01 07:30:39;;;;;;;;;;;21.00;47.20;;;;;;5067170;28;20291;-53
2023/06/01 07:33:04;;;;;;;;;;;20.90;47.10;;;;;;5088994;28;19916;-52
2023/06/01 07:35:30;;;;;;;;;;;20.90;47.20;;;;;;5092750;28;20383;-52
2023/06/01 07:37:55;;;;;;;;;;;20.90;47.30;;;;;;5088643;28;20324;-54
2023/06/01 07:40:21;;;;;;;;;;;20.90;47.30;;;;;;5084138;28;19913;-53
2023/06/01 07:42:46;;;;;;;;;;;21.00;47.20;;;;;;5087658;28;20405;-52
2023/06/01 07:45:13;;;;;;;;;;;21.00;48.00;;;;;;5087814;28;19912;-54
2023/06/01 07:47:38;;;;;;;;;;;20.90;47.30;;;;;;5090390;28;20306;-53
2023/06/01 07:50:04;;;;;;;;;;;21.00;47.40;;;;;;5071806;28;19928;-54
2023/06/01 07:52:29;;;;;;;;;;;21.00;47.40;;;;;;5087364;28;19923;-54
2023/06/01 07:54:57;;;;;;;;;;;20.90;47.40;;;;;;5090096;28;21455;-54
2023/06/01 07:57:23;;;;;;;;;;;20.90;47.60;;;;;;5065543;28;20008;-54
2023/06/01 07:59:49;;;;;;;;;;;20.90;47.60;;;;;;5089125;28;20641;-53
2023/06/01 08:02:14;;;;;;;;;;;20.90;47.70;;;;;;5079849;28;19951;-53
2023/06/01 08:04:40;;;;;;;;;;;20.90;47.90;;;;;;5079658;28;19927;-54
2023/06/01 08:07:07;;;;;;;;;;;20.90;47.60;;;;;;5087293;28;20367;-54
2023/06/01 08:09:32;;;;;;;;;;;21.00;47.40;;;;;;5081708;28;20002;-53
2023/06/01 08:11:58;;;;;;;;;;;21.20;47.40;;;;;;5063155;28;19922;-54
2023/06/01 08:14:23;;;;;;;;;;;21.30;47.30;;;;;;5065276;28;19912;-52
2023/06/01 08:16:51;;;;;;;;;;;21.40;47.10;;;;;;5066997;28;19943;-54
2023/06/01 08:19:16;;;;;;;;;;;21.50;47.10;;;;;;5087388;28;19963;-54
2023/06/01 08:21:42;;;;;;;;;;;21.50;46.90;;;;;;5060874;28;19943;-54
2023/06/01 08:24:11;;;;;;;;;;;21.60;46.90;;;;;;5074221;28;19959;-53
2023/06/01 08:26:37;;;;;;;;;;;21.60;46.90;;;;;;5084276;28;19916;-54
2023/06/01 08:29:03;;;;;;;;;;;21.60;47.00;;;;;;5067947;28;19920;-54
2023/06/01 08:31:28;;;;;;;;;;;21.60;46.90;;;;;;5093847;28;20011;-54
2023/06/01 08:33:55;;;;;;;;;;;21.60;46.90;;;;;;5084625;28;20010;-54
2023/06/01 08:36:20;;;;;;;;;;;21.70;47.10;;;;;;5087143;28;19916;-53
2023/06/01 08:38:46;;;;;;;;;;;21.70;47.60;;;;;;5089368;28;19912;-54
2023/06/01 08:41:25;;;;;;;;;;;21.70;47.00;;;;;;5067372;28;19908;-54
2023/06/01 08:43:53;;;;;;;;;;;21.70;47.00;;;;;;5061045;28;20304;-53
2023/06/01 08:46:19;;;;;;;;;;;21.70;47.10;;;;;;5068760;28;19920;-54
2023/06/01 08:48:44;;;;;;;;;;;21.70;47.10;;;;;;5066483;28;19926;-52
2023/06/01 08:51:10;;;;;;;;;;;21.70;47.00;;;;;;5085548;28;19916;-54
2023/06/01 08:53:35;;;;;;;;;;;21.70;47.00;;;;;;5073188;28;19915;-55
2023/06/01 08:56:03;;;;;;;;;;;21.70;46.90;;;;;;5066597;28;20459;-55
2023/06/01 08:58:28;;;;;;;;;;;21.70;47.00;;;;;;5089650;28;19965;-54
2023/06/01 09:00:53;;;;;;;;;;;21.80;47.00;;;;;;5068725;28;19924;-54
2023/06/01 09:03:19;;;;;;;;;;;21.70;46.90;;;;;;5080438;28;19916;-55
2023/06/01 09:05:45;;;;;;;;;;;21.80;46.80;;;;;;5086028;28;19926;-55
2023/06/01 09:08:10;;;;;;;;;;;21.80;46.80;;;;;;5085888;28;19916;-55
2023/06/01 09:10:36;;;;;;;;;;;21.80;46.90;;;;;;5063157;28;20292;-55
2023/06/01 09:13:01;;;;;;;;;;;21.80;47.00;;;;;;5071056;28;20012;-55
2023/06/01 09:15:27;;;;;;;;;;;21.80;47.00;;;;;;5091522;28;19912;-55
2023/06/01 09:18:03;;;;;;;;;;;21.80;47.00;;;;;;5089763;28;20329;-56
2023/06/01 09:20:29;;;;;;;;;;;21.80;47.00;;;;;;5087311;28;20368;-55
2023/06/01 09:22:54;;;;;;;;;;;21.80;46.90;;;;;;5088227;28;19932;-55
2023/06/01 09:25:24;;;;;;;;;;;21.80;47.00;;;;;;5090386;28;19921;-55
2023/06/01 09:27:50;;;;;;;;;;;21.80;47.00;;;;;;5087807;28;19970;-55
2023/06/01 09:30:16;;;;;;;;;;;21.80;47.00;;;;;;5090834;28;20280;-55
2023/06/01 09:32:42;;;;;;;;;;;21.80;46.90;;;;;;5069168;28;19919;-55
2023/06/01 09:35:08;;;;;;;;;;;21.80;47.00;;;;;;5091208;28;19920;-56
2023/06/01 09:37:34;;;;;;;;;;;21.80;47.00;;;;;;5085930;28;19994;-56
2023/06/01 09:40:00;;;;;;;;;;;21.80;47.00;;;;;;5065017;28;19917;-56
2023/06/01 09:42:30;;;;;;;;;;;21.80;46.80;;;;;;5067877;28;19915;-55
2023/06/01 09:44:55;;;;;;;;;;;21.80;47.00;;;;;;5090410;28;19923;-56
2023/06/01 09:47:21;;;;;;;;;;;21.80;46.80;;;;;;5068867;28;19920;-56
2023/06/01 09:49:47;;;;;;;;;;;21.80;46.80;;;;;;5070020;28;20002;-56
2023/06/01 09:52:14;;;;;;;;;;;21.80;46.90;;;;;;5073471;28;19923;-56
2023/06/01 09:54:47;;;;;;;;;;;21.90;47.10;;;;;;5090909;28;19916;-56
2023/06/01 09:57:12;;;;;;;;;;;21.90;47.00;;;;;;5074066;28;19918;-56
2023/06/01 09:59:39;;;;;;;;;;;21.90;47.00;;;;;;5083068;28;19916;-56
2023/06/01 10:02:04;;;;;;;;;;;21.90;47.00;;;;;;5083163;28;19959;-56
2023/06/01 10:04:30;;;;;;;;;;;21.90;47.00;;;;;;5088164;28;19951;-56
2023/06/01 10:06:56;;;;;;;;;;;21.90;47.10;;;;;;5056549;28;20422;-56
2023/06/01 10:09:22;;;;;;;;;;;21.90;46.90;;;;;;5082793;28;20430;-56
2023/06/01 10:11:48;;;;;;;;;;;21.90;46.90;;;;;;5062492;28;20376;-56
2023/06/01 10:14:14;;;;;;;;;;;22.00;46.90;;;;;;5093985;28;19915;-56
2023/06/01 10:16:40;;;;;;;;;;;22.00;46.90;;;;;;5087704;28;19916;-56
2023/06/01 10:19:06;;;;;;;;;;;22.00;46.90;;;;;;5070498;28;19916;-56
2023/06/01 10:21:32;;;;;;;;;;;22.00;46.80;;;;;;5088673;28;19961;-56
2023/06/01 10:23:58;;;;;;;;;;;22.00;47.00;;;;;;5063891;28;19924;-56
2023/06/01 10:26:23;;;;;;;;;;;21.90;46.70;;;;;;5068589;28;19916;-55
2023/06/01 10:28:49;;;;;;;;;;;22.00;46.80;;;;;;5068210;28;19917;-56
2023/06/01 10:31:33;;;;;;;;;;;22.00;46.90;;;;;;5068212;28;19920;-56
2023/06/01 10:33:58;;;;;;;;;;;22.00;46.70;;;;;;5086762;28;19999;-56
2023/06/01 10:36:26;;;;;;;;;;;22.00;46.70;;;;;;5091237;28;20661;-57
2023/06/01 10:39:11;;;;;;;;;;;22.00;46.70;;;;;;5086603;28;20619;-56
2023/06/01 10:41:37;;;;;;;;;;;22.00;46.70;;;;;;5088869;28;19927;-57
2023/06/01 10:44:03;;;;;;;;;;;22.00;46.70;;;;;;5087202;28;19919;-56
2023/06/01 10:46:38;;;;;;;;;;;22.00;46.80;;;;;;5090349;28;19916;-56
2023/06/01 10:49:04;;;;;;;;;;;22.00;46.70;;;;;;5065896;28;20336;-55
2023/06/01 10:51:30;;;;;;;;;;;22.00;46.90;;;;;;5074489;28;19967;-56
2023/06/01 10:54:15;;;;;;;;;;;22.00;46.90;;;;;;5082404;28;19912;-55
2023/06/01 10:56:41;;;;;;;;;;;22.00;46.70;;;;;;5083236;28;19916;-56
2023/06/01 10:59:09;;;;;;;;;;;22.00;46.90;;;;;;5091212;28;20287;-56
2023/06/01 11:01:41;;;;;;;;;;;22.10;46.80;;;;;;5069533;28;19924;-55
2023/06/01 11:04:07;;;;;;;;;;;22.10;46.90;;;;;;5085589;28;19965;-55
2023/06/01 11:06:35;;;;;;;;;;;22.10;46.90;;;;;;5091781;28;19953;-56
2023/06/01 11:09:01;;;;;;;;;;;22.10;47.00;;;;;;5073607;28;20356;-56
2023/06/01 11:11:45;;;;;;;;;;;22.10;46.90;;;;;;5091281;28;19999;-56
2023/06/01 11:14:11;;;;;;;;;;;22.20;46.90;;;;;;5081608;28;20319;-56
2023/06/01 11:16:37;;;;;;;;;;;22.10;46.80;;;;;;5084679;28;19912;-55
2023/06/01 11:19:03;;;;;;;;;;;22.20;46.90;;;;;;5087539;28;19912;-55
2023/06/01 11:21:33;;;;;;;;;;;22.10;46.80;;;;;;5084323;28;19977;-56
2023/06/01 11:23:59;;;;;;;;;;;22.10;46.70;;;;;;5090312;28;19912;-55
2023/06/01 11:26:45;;;;;;;;;;;22.10;46.90;;;;;;5084042;28;20010;-56
2023/06/01 11:29:11;;;;;;;;;;;22.20;47.00;;;;;;5087300;28;19916;-56
2023/06/01 11:31:37;;;;;;;;;;;22.20;46.90;;;;;;5089631;28;20295;-56
2023/06/01 11:34:03;;;;;;;;;;;22.10;46.90;;;;;;5085866;28;19915;-55
2023/06/01 11:36:29;;;;;;;;;;;22.20;46.90;;;;;;5083540;28;20342;-56
2023/06/01 11:38:55;;;;;;;;;;;22.20;46.80;;;;;;5090858;28;19981;-56
2023/06/01 11:41:22;;;;;;;;;;;22.10;46.80;;;;;;5088909;28;19912;-54
2023/06/01 11:43:53;;;;;;;;;;;22.20;46.90;;;;;;5087805;28;19938;-54
2023/06/01 11:46:18;;;;;;;;;;;22.20;47.00;;;;;;5083839;28;20400;-54
2023/06/01 11:48:48;;;;;;;;;;;22.20;46.90;;;;;;5087911;28;20014;-55
2023/06/01 11:51:16;;;;;;;;;;;22.20;46.80;;;;;;5069009;28;20221;-54
2023/06/01 11:53:43;;;;;;;;;;;22.20;46.90;;;;;;5067794;28;19994;-54
2023/06/01 11:56:09;;;;;;;;;;;22.20;46.80;;;;;;5085255;28;19964;-55
2023/06/01 11:58:34;;;;;;;;;;;22.20;46.80;;;;;;5075519;28;19927;-54
2023/06/01 12:01:00;;;;;;;;;;;22.20;46.90;;;;;;5081673;28;19912;-55
2023/06/01 12:03:25;;;;;;;;;;;22.20;46.70;;;;;;5056287;28;19912;-54
2023/06/01 12:05:51;;;;;;;;;;;22.20;46.90;;;;;;5082156;28;19912;-56
2023/06/01 12:08:23;;;;;;;;;;;22.20;46.80;;;;;;5082782;28;19942;-55
2023/06/01 12:10:50;;;;;;;;;;;22.20;46.80;;;;;;5084120;28;20753;-54
2023/06/01 12:13:16;;;;;;;;;;;22.20;46.60;;;;;;5089750;28;20011;-54
2023/06/01 12:15:41;;;;;;;;;;;22.20;46.60;;;;;;5074622;28;20003;-55
2023/06/01 12:18:08;;;;;;;;;;;22.20;46.60;;;;;;5085817;28;19958;-54
2023/06/01 12:20:37;;;;;;;;;;;22.20;46.70;;;;;;5083948;28;19965;-54
2023/06/01 12:23:15;;;;;;;;;;;22.20;46.60;;;;;;5087708;28;19923;-54
2023/06/01 12:25:48;;;;;;;;;;;22.30;46.80;;;;;;5072613;28;19922;-54
2023/06/01 12:28:14;;;;;;;;;;;22.30;46.60;;;;;;5088746;28;20343;-55
2023/06/01 12:30:39;;;;;;;;;;;22.30;46.60;;;;;;5086200;28;19947;-54
2023/06/01 12:33:05;;;;;;;;;;;22.30;46.50;;;;;;5080555;28;19916;-55
2023/06/01 12:35:31;;;;;;;;;;;22.40;46.60;;;;;;5058329;28;19916;-56
2023/06/01 12:38:10;;;;;;;;;;;22.30;46.60;;;;;;5065170;28;19962;-54
2023/06/01 12:40:36;;;;;;;;;;;22.40;46.70;;;;;;5060600;28;19964;-55
2023/06/01 12:43:02;;;;;;;;;;;22.40;46.50;;;;;;5090171;28;19919;-55
2023/06/01 12:45:37;;;;;;;;;;;22.40;46.40;;;;;;5090323;28;19990;-54
2023/06/01 12:48:03;;;;;;;;;;;22.40;46.40;;;;;;5087301;28;19931;-54
2023/06/01 12:50:28;;;;;;;;;;;22.50;46.50;;;;;;5082522;28;19913;-54
2023/06/01 12:52:54;;;;;;;;;;;22.50;46.50;;;;;;5086778;28;19994;-54
2023/06/01 12:55:20;;;;;;;;;;;22.50;46.50;;;;;;5091297;28;19912;-54
2023/06/01 12:57:51;;;;;;;;;;;22.50;46.50;;;;;;5090052;28;19955;-54
2023/06/01 13:00:17;;;;;;;;;;;22.50;46.50;;;;;;5067918;28;19947;-55
2023/06/01 13:02:42;;;;;;;;;;;22.50;46.50;;;;;;5094236;28;19955;-55
2023/06/01 13:05:08;;;;;;;;;;;22.50;46.50;;;;;;5084856;28;19919;-55
2023/06/01 13:07:34;;;;;;;;;;;22.50;46.50;;;;;;5091133;28;20291;-55
2023/06/01 13:10:00;;;;;;;;;;;22.50;46.50;;;;;;5090030;28;20007;-55
2023/06/01 13:12:27;;;;;;;;;;;22.50;46.50;;;;;;5065970;28;19927;-55
2023/06/01 13:14:52;;;;;;;;;;;22.50;46.50;;;;;;5068705;28;20450;-54
2023/06/01 13:17:18;;;;;;;;;;;22.50;46.50;;;;;;5048502;28;19921;-54
2023/06/01 13:19:43;;;;;;;;;;;22.60;46.60;;;;;;5087614;28;19928;-54
2023/06/01 13:22:09;;;;;;;;;;;22.60;46.60;;;;;;5071778;28;20410;-54
2023/06/01 13:24:34;;;;;;;;;;;22.60;46.60;;;;;;5082543;28;20327;-55
2023/06/01 13:27:00;;;;;;;;;;;22.60;46.50;;;;;;5086743;28;19962;-54
2023/06/01 13:29:25;;;;;;;;;;;22.70;46.70;;;;;;5091441;28;19912;-54
2023/06/01 13:31:51;;;;;;;;;;;22.70;46.70;;;;;;5088053;28;19916;-54
2023/06/01 13:34:20;;;;;;;;;;;22.70;46.70;;;;;;5067805;28;19916;-53
2023/06/01 13:36:46;;;;;;;;;;;22.70;47.30;;;;;;5093543;28;19931;-54
2023/06/01 13:39:11;;;;;;;;;;;22.70;46.70;;;;;;5063525;28;19912;-55
2023/06/01 13:41:39;;;;;;;;;;;22.70;46.90;;;;;;5090756;28;19919;-55
2023/06/01 13:44:06;;;;;;;;;;;22.70;46.70;;;;;;5092315;28;20006;-55
2023/06/01 13:46:31;;;;;;;;;;;22.70;46.70;;;;;;5091408;28;19923;-56
2023/06/01 13:48:57;;;;;;;;;;;22.70;46.70;;;;;;5086415;28;20268;-55
2023/06/01 13:51:23;;;;;;;;;;;22.70;46.70;;;;;;5085784;28;19920;-55
2023/06/01 13:53:48;;;;;;;;;;;22.70;46.70;;;;;;5062524;28;20002;-56
2023/06/01 13:56:14;;;;;;;;;;;22.70;46.70;;;;;;5060483;28;19919;-56
2023/06/01 13:58:39;;;;;;;;;;;22.70;46.70;;;;;;5088300;28;19916;-55
2023/06/01 14:01:05;;;;;;;;;;;22.70;46.70;;;;;;5087648;28;19913;-56
2023/06/01 14:03:30;;;;;;;;;;;22.70;46.70;;;;;;5089297;28;19912;-56
2023/06/01 14:05:56;;;;;;;;;;;22.70;46.90;;;;;;5083634;28;19916;-56
2023/06/01 14:08:21;;;;;;;;;;;22.70;46.70;;;;;;5082091;28;19916;-56
2023/06/01 14:10:47;;;;;;;;;;;22.70;46.70;;;;;;5073894;28;19911;-56
2023/06/01 14:13:12;;;;;;;;;;;22.70;46.70;;;;;;5084045;28;19919;-56